Terminal Aerodrome Forecast
Issued by NWS Charleston, WV

Current Version | Previous Version | Graphics & Text | Print | Product List | Glossary On
Versions: 1 2 3 4 5 6 7 8 9 10 11 12 13 14 15 16 17 18 19 20 21 22 23
000
FTUS41 KRLX 231731
TAFEKN
TAF
KEKN 231731Z 2318/2418 32005KT P6SM FEW050 SCT200
     FM240000 00000KT P6SM SCT250
     FM240700 00000KT 6SM BR SCT250
     FM240900 00000KT 2SM BR BKN002
     FM241300 31005KT P6SM SCT150=

USA.gov is the U.S. government's official web portal to all federal, state and local government web resources and services.